createdAt,value
2023-01-18T00:01:19.561Z,94448.63
2023-01-18T00:03:46.473Z,94446.06
2023-01-18T00:06:13.084Z,94441.63
2023-01-18T00:08:40.992Z,94441.63
2023-01-18T00:11:13.301Z,94437.72
2023-01-18T00:13:40.339Z,94435.69
2023-01-18T00:16:11.755Z,94434.88
2023-01-18T00:18:40.807Z,94434.09
2023-01-18T00:21:10.235Z,94434.81
2023-01-18T00:23:39.968Z,94443.72
2023-01-18T00:26:13.814Z,94439.00
2023-01-18T00:28:40.981Z,94446.84
2023-01-18T00:31:12.704Z,94445.63
2023-01-18T00:33:41.976Z,94449.44
2023-01-18T00:36:08.511Z,94450.13
2023-01-18T00:38:34.989Z,94439.59
2023-01-18T00:41:01.647Z,94428.59
2023-01-18T00:43:40.093Z,94438.09
2023-01-18T00:46:11.647Z,94432.41
2023-01-18T00:48:39.743Z,94434.97
2023-01-18T00:51:08.025Z,94430.78
2023-01-18T00:53:34.573Z,94431.75
2023-01-18T00:56:01.096Z,94428.63
2023-01-18T00:58:28.957Z,94434.72
2023-01-18T01:00:55.538Z,94429.19
2023-01-18T01:03:22.079Z,94430.13
2023-01-18T01:06:07.100Z,94429.06
2023-01-18T01:08:34.214Z,94421.47
2023-01-18T01:11:11.691Z,94424.84
2023-01-18T01:13:57.313Z,94430.41
2023-01-18T01:16:42.890Z,94431.78
2023-01-18T01:19:28.158Z,94437.72
2023-01-18T01:22:13.010Z,94436.38
2023-01-18T01:24:57.813Z,94437.72
2023-01-18T01:27:24.258Z,94432.84
2023-01-18T01:29:51.650Z,94435.31
2023-01-18T01:32:18.336Z,94444.75
2023-01-18T01:34:44.903Z,94445.16
2023-01-18T01:37:11.365Z,94443.69
2023-01-18T01:39:37.850Z,94447.06
2023-01-18T01:42:04.378Z,94444.19
2023-01-18T01:44:34.592Z,94444.19
2023-01-18T01:47:10.917Z,94443.00
2023-01-18T01:49:52.640Z,94448.25
2023-01-18T01:52:28.367Z,94446.66
2023-01-18T01:55:29.569Z,94456.06
2023-01-18T01:57:58.317Z,94448.22
2023-01-18T02:00:27.611Z,94451.88
2023-01-18T02:03:00.892Z,94452.97
2023-01-18T02:05:31.849Z,94446.84
2023-01-18T02:08:00.814Z,94443.84
2023-01-18T02:10:28.667Z,94441.28
2023-01-18T02:12:57.041Z,94444.00
2023-01-18T02:15:32.425Z,94446.97
2023-01-18T02:18:16.216Z,94445.19
2023-01-18T02:20:48.903Z,94453.28
2023-01-18T02:23:35.292Z,94455.47
2023-01-18T02:26:13.985Z,94464.69
2023-01-18T02:28:46.070Z,94472.56
2023-01-18T02:31:28.925Z,94468.38
2023-01-18T02:34:16.541Z,94471.19
2023-01-18T02:36:55.133Z,94470.06
2023-01-18T02:39:45.975Z,94474.69
2023-01-18T02:42:39.455Z,94473.53
2023-01-18T02:45:35.893Z,94474.91
2023-01-18T02:48:06.108Z,94479.13
2023-01-18T02:50:34.813Z,94480.31
2023-01-18T02:53:01.318Z,94475.56
2023-01-18T02:55:38.171Z,94479.50
2023-01-18T02:58:44.340Z,94474.19
2023-01-18T03:01:14.503Z,94478.44
2023-01-18T03:03:44.301Z,94473.53
2023-01-18T03:06:10.720Z,94467.97
2023-01-18T03:08:51.271Z,94480.22
2023-01-18T03:11:20.661Z,94481.88
2023-01-18T03:14:02.667Z,94487.41
2023-01-18T03:16:40.550Z,94493.97
2023-01-18T03:19:37.379Z,94496.56
2023-01-18T03:22:06.162Z,94504.41
2023-01-18T03:24:41.105Z,94513.03
2023-01-18T03:27:27.767Z,94516.25
2023-01-18T03:30:15.295Z,94511.13
2023-01-18T03:33:01.027Z,94519.44
2023-01-18T03:35:33.112Z,94523.56
2023-01-18T03:37:59.788Z,94521.00
2023-01-18T03:40:30.720Z,94528.97
2023-01-18T03:43:09.095Z,94529.72
2023-01-18T03:45:43.000Z,94528.16
2023-01-18T03:48:12.847Z,94533.69
2023-01-18T03:51:07.196Z,94527.47
2023-01-18T03:53:40.532Z,94531.16
2023-01-18T03:56:22.455Z,94540.53
2023-01-18T03:58:54.114Z,94535.50
2023-01-18T04:01:21.183Z,94527.06
2023-01-18T04:03:47.711Z,94540.78
2023-01-18T04:06:14.430Z,94548.69
2023-01-18T04:08:40.968Z,94545.88
2023-01-18T04:11:07.473Z,94553.69
2023-01-18T04:13:33.931Z,94549.78
2023-01-18T04:16:00.415Z,94546.31
2023-01-18T04:18:26.922Z,94555.72
2023-01-18T04:20:56.411Z,94551.28
2023-01-18T04:23:23.954Z,94557.81
2023-01-18T04:25:51.502Z,94554.50
2023-01-18T04:28:27.985Z,94555.78
2023-01-18T04:30:56.340Z,94556.78
2023-01-18T04:33:24.165Z,94568.38
2023-01-18T04:35:51.711Z,94562.22
2023-01-18T04:38:18.254Z,94567.97
2023-01-18T04:40:44.785Z,94566.69
2023-01-18T04:43:11.290Z,94564.59
2023-01-18T04:45:37.785Z,94559.09
2023-01-18T04:48:04.708Z,94546.84
2023-01-18T04:50:31.187Z,94551.97
2023-01-18T04:52:58.838Z,94553.25
2023-01-18T04:55:25.593Z,94558.28
2023-01-18T04:57:59.391Z,94563.47
2023-01-18T05:00:28.085Z,94567.06
2023-01-18T05:02:54.574Z,94574.13
2023-01-18T05:05:21.073Z,94580.97
2023-01-18T05:07:47.612Z,94585.19
2023-01-18T05:10:14.284Z,94584.69
2023-01-18T05:12:41.051Z,94584.34
2023-01-18T05:15:08.314Z,94588.91
2023-01-18T05:17:35.438Z,94587.19
2023-01-18T05:20:04.445Z,94596.75
2023-01-18T05:22:33.025Z,94601.56
2023-01-18T05:25:00.371Z,94603.66
2023-01-18T05:27:26.877Z,94601.31
2023-01-18T05:29:53.388Z,94605.63
2023-01-18T05:32:20.164Z,94604.31
2023-01-18T05:34:49.491Z,94609.81
2023-01-18T05:37:18.567Z,94608.75
2023-01-18T05:39:47.307Z,94608.69
2023-01-18T05:42:13.822Z,94616.41
2023-01-18T05:44:42.594Z,94610.75
2023-01-18T05:47:09.091Z,94619.00
2023-01-18T05:49:35.579Z,94622.38
2023-01-18T05:52:08.307Z,94627.06
2023-01-18T05:54:34.901Z,94622.50
2023-01-18T05:57:01.394Z,94635.31
2023-01-18T05:59:27.844Z,94637.13
2023-01-18T06:01:54.294Z,94636.84
2023-01-18T06:04:20.840Z,94642.81
2023-01-18T06:06:49.576Z,94644.22
2023-01-18T06:09:16.079Z,94652.97
2023-01-18T06:11:42.593Z,94659.63
2023-01-18T06:14:09.053Z,94662.06
2023-01-18T06:16:35.616Z,94670.34
2023-01-18T06:19:02.144Z,94671.75
2023-01-18T06:21:31.300Z,94676.19
2023-01-18T06:23:57.779Z,94681.66
2023-01-18T06:26:24.278Z,94690.50
2023-01-18T06:28:53.556Z,94684.94
2023-01-18T06:31:20.097Z,94689.47
2023-01-18T06:33:46.670Z,94695.09
2023-01-18T06:36:13.177Z,94704.06
2023-01-18T06:38:39.669Z,94701.28
2023-01-18T06:41:06.128Z,94710.34
2023-01-18T06:43:32.625Z,94721.78
2023-01-18T06:45:59.531Z,94719.31
2023-01-18T06:48:30.819Z,94719.31
2023-01-18T06:50:59.963Z,94716.16
2023-01-18T06:53:27.001Z,94730.28
2023-01-18T06:55:58.940Z,94736.69
2023-01-18T06:58:27.036Z,94739.03
2023-01-18T07:00:57.495Z,94742.16
2023-01-18T07:03:28.003Z,94739.84
2023-01-18T07:05:58.759Z,94737.28
2023-01-18T07:08:26.984Z,94735.75
2023-01-18T07:10:54.422Z,94749.66
2023-01-18T07:13:25.562Z,94756.50
2023-01-18T07:15:54.830Z,94759.44
2023-01-18T07:18:21.319Z,94763.50
2023-01-18T07:20:56.759Z,94769.34
2023-01-18T07:23:25.510Z,94779.13
2023-01-18T07:26:18.479Z,94779.38
2023-01-18T07:28:48.253Z,94785.56
2023-01-18T07:31:16.365Z,94788.34
2023-01-18T07:33:42.910Z,94800.38
2023-01-18T07:36:10.880Z,94795.13
2023-01-18T07:38:39.841Z,94795.13
2023-01-18T07:41:09.058Z,94798.28
2023-01-18T07:43:38.406Z,94803.88
2023-01-18T07:46:06.858Z,94808.78
2023-01-18T07:48:34.152Z,94810.53
2023-01-18T07:51:06.079Z,94819.75
2023-01-18T07:53:37.028Z,94817.75
2023-01-18T07:56:09.445Z,94821.59
2023-01-18T07:58:36.425Z,94828.38
2023-01-18T08:01:08.697Z,94820.66
2023-01-18T08:03:36.397Z,94830.91
2023-01-18T08:06:05.486Z,94833.16
2023-01-18T08:08:32.048Z,94832.91
2023-01-18T08:11:02.776Z,94837.81
2023-01-18T08:13:29.749Z,94846.00
2023-01-18T08:16:00.135Z,94852.16
2023-01-18T08:18:26.788Z,94847.72
2023-01-18T08:20:55.090Z,94850.75
2023-01-18T08:23:22.268Z,94857.28
2023-01-18T08:25:49.683Z,94854.13
2023-01-18T08:28:16.893Z,94849.72
2023-01-18T08:30:46.037Z,94862.91
2023-01-18T08:33:12.958Z,94868.75
2023-01-18T08:35:47.362Z,94878.31
2023-01-18T08:38:18.207Z,94876.66
2023-01-18T08:40:44.676Z,94881.09
2023-01-18T08:43:11.824Z,94881.41
2023-01-18T08:45:40.618Z,94884.34
2023-01-18T08:48:10.632Z,94894.03
2023-01-18T08:50:39.024Z,94892.72
2023-01-18T08:53:05.523Z,94897.38
2023-01-18T08:55:34.020Z,94897.81
2023-01-18T08:58:00.561Z,94897.94
2023-01-18T09:00:30.707Z,94905.75
2023-01-18T09:02:58.516Z,94901.66
2023-01-18T09:05:26.987Z,94901.09
2023-01-18T09:07:54.918Z,94909.56
2023-01-18T09:10:22.354Z,94905.50
2023-01-18T09:12:53.609Z,94905.25
2023-01-18T09:15:20.847Z,94911.94
2023-01-18T09:17:47.390Z,94912.31
2023-01-18T09:20:13.886Z,94921.66
2023-01-18T09:22:42.718Z,94927.03
2023-01-18T09:25:09.637Z,94924.19
2023-01-18T09:27:38.568Z,94928.34
2023-01-18T09:30:07.251Z,94942.81
2023-01-18T09:32:33.690Z,94942.81
2023-01-18T09:35:00.151Z,94946.81
2023-01-18T09:37:26.659Z,94954.19
2023-01-18T09:39:53.196Z,94957.84
2023-01-18T09:42:23.738Z,94964.66
2023-01-18T09:44:53.867Z,94960.41
2023-01-18T09:47:42.817Z,94958.63
2023-01-18T09:50:17.527Z,94964.59
2023-01-18T09:52:50.787Z,94970.50
2023-01-18T09:55:42.278Z,94971.09
2023-01-18T09:58:37.796Z,94965.69
2023-01-18T10:01:35.268Z,94975.25
2023-01-18T10:04:12.920Z,94985.06
2023-01-18T10:06:56.833Z,94974.47
2023-01-18T10:09:36.879Z,94978.53
2023-01-18T10:12:07.196Z,94966.31
2023-01-18T10:15:04.381Z,94970.94
2023-01-18T10:17:38.548Z,94976.38
2023-01-18T10:20:17.319Z,94978.00
2023-01-18T10:22:53.539Z,94982.34
2023-01-18T10:25:42.062Z,94985.06
2023-01-18T10:28:29.946Z,94993.47
2023-01-18T10:31:18.586Z,94999.19
2023-01-18T10:33:46.585Z,95001.84
2023-01-18T10:36:17.695Z,95012.50
2023-01-18T10:38:45.662Z,95010.75
2023-01-18T10:41:20.441Z,95008.44
2023-01-18T10:43:47.463Z,95004.28
2023-01-18T10:46:16.952Z,95010.03
2023-01-18T10:48:54.439Z,95004.75
2023-01-18T10:51:40.292Z,95004.81
2023-01-18T10:54:19.193Z,95012.34
2023-01-18T10:56:45.897Z,95010.84
2023-01-18T10:59:39.943Z,95009.56
2023-01-18T11:02:21.385Z,95013.19
2023-01-18T11:04:56.795Z,95020.59
2023-01-18T11:07:28.089Z,95019.72
2023-01-18T11:10:09.449Z,95022.28
2023-01-18T11:12:44.186Z,95026.63
2023-01-18T11:15:13.876Z,95026.19
2023-01-18T11:17:44.432Z,95033.34
2023-01-18T11:20:20.438Z,95035.31
2023-01-18T11:23:01.729Z,95040.06
2023-01-18T11:25:46.806Z,95042.03
2023-01-18T11:28:26.234Z,95046.69
2023-01-18T11:31:06.564Z,95042.16
2023-01-18T11:33:33.371Z,95042.34
2023-01-18T11:36:02.452Z,95028.03
2023-01-18T11:38:34.574Z,95036.72
2023-01-18T11:41:25.929Z,95029.03
2023-01-18T11:44:17.295Z,95033.41
2023-01-18T11:46:55.606Z,95033.75
2023-01-18T11:49:28.757Z,95041.44
2023-01-18T11:52:01.908Z,95055.22
2023-01-18T11:54:39.755Z,95056.81
2023-01-18T11:57:10.190Z,95069.28
2023-01-18T11:59:54.974Z,95067.47
2023-01-18T12:02:40.246Z,95069.78
2023-01-18T12:05:31.877Z,95084.72
2023-01-18T12:08:26.902Z,95078.84
2023-01-18T12:11:23.800Z,95078.72
2023-01-18T12:14:12.732Z,95084.00
2023-01-18T12:16:48.306Z,95096.53
2023-01-18T12:19:31.421Z,95096.84
2023-01-18T12:22:32.304Z,95106.09
2023-01-18T12:26:11.651Z,95107.88
2023-01-18T12:28:54.748Z,95104.38
2023-01-18T12:31:50.079Z,95112.72
2023-01-18T12:34:26.988Z,95111.59
2023-01-18T12:37:08.351Z,95120.19
2023-01-18T12:40:04.089Z,95127.38
2023-01-18T12:42:58.749Z,95133.63
2023-01-18T12:46:03.071Z,95148.50
2023-01-18T12:48:32.963Z,95149.56
2023-01-18T12:51:04.876Z,95137.03
2023-01-18T12:54:25.035Z,95151.22
2023-01-18T12:56:55.248Z,95150.53
2023-01-18T12:59:35.820Z,95148.34
2023-01-18T13:02:24.415Z,95152.75
2023-01-18T13:04:59.922Z,95160.09
2023-01-18T13:07:37.982Z,95164.16
2023-01-18T13:10:16.504Z,95168.69
2023-01-18T13:12:43.479Z,95163.78
2023-01-18T13:15:44.009Z,95168.25
2023-01-18T13:18:28.420Z,95170.03
2023-01-18T13:21:11.377Z,95176.69
2023-01-18T13:24:00.010Z,95177.06
2023-01-18T13:26:38.455Z,95174.91
2023-01-18T13:29:20.063Z,95179.41
2023-01-18T13:31:46.860Z,95175.66
2023-01-18T13:34:47.688Z,95179.03
2023-01-18T13:37:54.947Z,95182.78
2023-01-18T13:40:34.573Z,95197.97
2023-01-18T13:43:01.578Z,95208.69
2023-01-18T13:45:30.289Z,95223.59
2023-01-18T13:48:04.960Z,95231.16
2023-01-18T13:50:31.596Z,95234.34
2023-01-18T13:53:19.455Z,95242.66
2023-01-18T13:55:47.144Z,95245.16
2023-01-18T13:58:19.627Z,95249.03
2023-01-18T14:00:48.542Z,95264.19
2023-01-18T14:03:28.183Z,95272.81
2023-01-18T14:05:57.363Z,95279.03
2023-01-18T14:08:32.505Z,95276.63
2023-01-18T14:11:07.303Z,95280.41
2023-01-18T14:13:46.044Z,95277.28
2023-01-18T14:16:22.999Z,95285.84
2023-01-18T14:19:06.124Z,95286.13
2023-01-18T14:21:45.149Z,95290.19
2023-01-18T14:24:50.048Z,95309.53
2023-01-18T14:27:26.630Z,95313.34
2023-01-18T14:30:01.510Z,95312.00
2023-01-18T14:32:34.777Z,95311.13
2023-01-18T14:35:04.843Z,95319.81
2023-01-18T14:37:37.262Z,95322.56
2023-01-18T14:40:12.783Z,95329.06
2023-01-18T14:42:50.313Z,95337.09
2023-01-18T14:45:24.788Z,95337.09
2023-01-18T14:47:51.407Z,95340.72
2023-01-18T14:50:21.011Z,95351.97
2023-01-18T14:52:52.994Z,95363.50
2023-01-18T14:55:26.479Z,95381.00
2023-01-18T14:58:02.067Z,95390.91
2023-01-18T15:00:28.851Z,95391.16
2023-01-18T15:02:55.404Z,95397.59
2023-01-18T15:05:29.030Z,95416.38
2023-01-18T15:07:56.112Z,95414.44
2023-01-18T15:10:24.172Z,95421.97
2023-01-18T15:12:57.189Z,95423.78
2023-01-18T15:15:31.770Z,95427.81
2023-01-18T15:18:10.445Z,95433.72
2023-01-18T15:20:48.273Z,95428.06
2023-01-18T15:23:17.758Z,95445.03
2023-01-18T15:25:44.623Z,95456.41
2023-01-18T15:28:23.234Z,95463.81
2023-01-18T15:30:53.423Z,95464.78
2023-01-18T15:33:24.943Z,95470.31
2023-01-18T15:35:57.045Z,95472.28
2023-01-18T15:38:24.013Z,95487.06
2023-01-18T15:40:59.531Z,95491.63
2023-01-18T15:43:46.174Z,95494.44
2023-01-18T15:46:17.344Z,95505.09
2023-01-18T15:48:47.035Z,95509.91
2023-01-18T15:51:13.815Z,95521.03
2023-01-18T15:53:52.533Z,95514.34
2023-01-18T15:56:33.305Z,95523.59
2023-01-18T15:59:02.116Z,95515.84
2023-01-18T16:01:33.964Z,95530.53
2023-01-18T16:04:21.090Z,95536.22
2023-01-18T16:06:47.825Z,95535.97
2023-01-18T16:09:15.989Z,95538.44
2023-01-18T16:11:53.944Z,95541.91
2023-01-18T16:14:22.813Z,95545.47
2023-01-18T16:16:50.184Z,95556.47
2023-01-18T16:19:32.031Z,95560.38
2023-01-18T16:22:00.252Z,95557.63
2023-01-18T16:24:29.479Z,95560.91
2023-01-18T16:26:58.360Z,95568.50
2023-01-18T16:29:25.179Z,95574.34
2023-01-18T16:31:51.977Z,95572.28
2023-01-18T16:34:21.905Z,95570.16
2023-01-18T16:36:48.965Z,95573.28
2023-01-18T16:39:15.491Z,95579.97
2023-01-18T16:41:49.261Z,95585.00
2023-01-18T16:44:15.938Z,95588.66
2023-01-18T16:46:42.999Z,95594.88
2023-01-18T16:49:13.664Z,95596.97
2023-01-18T16:51:40.729Z,95607.81
2023-01-18T16:54:07.378Z,95619.06
2023-01-18T16:56:33.998Z,95623.78
2023-01-18T16:59:10.841Z,95621.22
2023-01-18T17:01:38.085Z,95626.22
2023-01-18T17:04:06.554Z,95627.44
2023-01-18T17:06:33.376Z,95630.56
2023-01-18T17:08:59.924Z,95629.19
2023-01-18T17:11:26.480Z,95634.19
2023-01-18T17:13:53.037Z,95647.84
2023-01-18T17:16:19.815Z,95663.19
2023-01-18T17:18:49.872Z,95666.91
2023-01-18T17:21:16.466Z,95669.25
2023-01-18T17:23:43.157Z,95676.09
2023-01-18T17:26:15.153Z,95681.66
2023-01-18T17:28:41.774Z,95687.91
2023-01-18T17:31:08.906Z,95700.13
2023-01-18T17:33:39.254Z,95705.41
2023-01-18T17:36:08.900Z,95709.56
2023-01-18T17:38:35.992Z,95712.84
2023-01-18T17:41:06.364Z,95713.63
2023-01-18T17:43:34.673Z,95721.56
2023-01-18T17:46:05.929Z,95724.53
2023-01-18T17:48:35.026Z,95729.47
2023-01-18T17:51:08.260Z,95731.47
2023-01-18T17:53:36.703Z,95733.47
2023-01-18T17:56:11.932Z,95732.63
2023-01-18T17:58:39.536Z,95740.75
2023-01-18T18:01:11.750Z,95739.56
2023-01-18T18:03:45.305Z,95749.72
2023-01-18T18:06:19.009Z,95756.81
2023-01-18T18:08:52.567Z,95751.97
2023-01-18T18:11:19.240Z,95749.69
2023-01-18T18:13:46.091Z,95750.88
2023-01-18T18:16:18.697Z,95757.72
2023-01-18T18:18:48.606Z,95763.72
2023-01-18T18:21:15.256Z,95769.69
2023-01-18T18:23:41.796Z,95774.00
2023-01-18T18:26:08.519Z,95789.66
2023-01-18T18:28:35.188Z,95791.75
2023-01-18T18:31:01.973Z,95788.22
2023-01-18T18:33:32.422Z,95784.44
2023-01-18T18:35:59.912Z,95787.41
2023-01-18T18:38:27.393Z,95787.88
2023-01-18T18:40:57.226Z,95781.84
2023-01-18T18:43:26.182Z,95797.13
2023-01-18T18:45:52.928Z,95793.09
2023-01-18T18:48:19.625Z,95793.19
2023-01-18T18:50:47.465Z,95799.78
2023-01-18T18:53:19.572Z,95801.44
2023-01-18T18:55:48.712Z,95804.66
2023-01-18T18:58:15.294Z,95802.72
2023-01-18T19:00:44.155Z,95797.75
2023-01-18T19:03:11.269Z,95802.25
2023-01-18T19:05:37.968Z,95810.03
2023-01-18T19:08:04.747Z,95815.84
2023-01-18T19:10:31.357Z,95811.34
2023-01-18T19:12:59.427Z,95810.94
2023-01-18T19:15:26.405Z,95816.09
2023-01-18T19:17:53.505Z,95823.09
2023-01-18T19:20:22.842Z,95819.50
2023-01-18T19:22:50.556Z,95826.81
2023-01-18T19:25:18.202Z,95822.56
2023-01-18T19:27:45.214Z,95815.44
2023-01-18T19:30:18.707Z,95823.50
2023-01-18T19:32:51.014Z,95833.72
2023-01-18T19:35:19.228Z,95837.09
2023-01-18T19:37:47.324Z,95839.28
2023-01-18T19:40:14.915Z,95847.22
2023-01-18T19:42:41.810Z,95849.59
2023-01-18T19:45:11.445Z,95856.81
2023-01-18T19:47:41.520Z,95861.03
2023-01-18T19:50:08.537Z,95860.72
2023-01-18T19:52:35.120Z,95873.19
2023-01-18T19:55:05.214Z,95876.56
2023-01-18T19:57:36.699Z,95883.06
2023-01-18T20:00:07.140Z,95891.22
2023-01-18T20:02:38.202Z,95890.00
2023-01-18T20:05:05.493Z,95889.91
2023-01-18T20:07:32.116Z,95899.16
2023-01-18T20:09:58.989Z,95897.00
2023-01-18T20:12:29.293Z,95908.13
2023-01-18T20:14:55.869Z,95918.53
2023-01-18T20:17:23.092Z,95926.97
2023-01-18T20:19:51.023Z,95935.75
2023-01-18T20:22:17.672Z,95931.53
2023-01-18T20:24:44.335Z,95940.91
2023-01-18T20:27:16.192Z,95949.16
2023-01-18T20:29:43.691Z,95938.41
2023-01-18T20:32:16.109Z,95939.78
2023-01-18T20:34:47.135Z,95943.47
2023-01-18T20:37:15.635Z,95951.28
2023-01-18T20:39:42.610Z,95962.75
2023-01-18T20:42:09.351Z,95966.97
2023-01-18T20:44:36.153Z,95967.00
2023-01-18T20:47:05.676Z,95973.78
2023-01-18T20:49:38.082Z,95965.72
2023-01-18T20:52:08.570Z,95976.06
2023-01-18T20:54:36.575Z,95969.88
2023-01-18T20:57:06.859Z,95977.69
2023-01-18T20:59:34.727Z,95973.78
2023-01-18T21:02:03.219Z,95979.53
2023-01-18T21:04:32.107Z,95986.16
2023-01-18T21:06:58.850Z,95979.16
2023-01-18T21:09:25.954Z,95979.47
2023-01-18T21:11:52.624Z,95984.91
2023-01-18T21:14:19.260Z,95981.41
2023-01-18T21:16:46.182Z,95984.19
2023-01-18T21:19:13.732Z,95985.53
2023-01-18T21:21:40.227Z,95984.09
2023-01-18T21:24:09.707Z,95976.94
2023-01-18T21:26:37.773Z,95982.00
2023-01-18T21:29:05.073Z,95982.31
2023-01-18T21:31:31.694Z,95985.91
2023-01-18T21:33:58.212Z,95982.00
2023-01-18T21:36:24.803Z,95991.88
2023-01-18T21:38:55.369Z,95986.22
2023-01-18T21:41:40.727Z,95992.53
2023-01-18T21:44:12.474Z,95987.78
2023-01-18T21:46:47.286Z,95993.03
2023-01-18T21:49:47.037Z,95994.78
2023-01-18T21:52:32.335Z,95991.97
2023-01-18T21:54:58.846Z,95993.09
2023-01-18T21:57:25.325Z,95995.50
2023-01-18T21:59:51.896Z,95996.22
2023-01-18T22:02:18.640Z,95998.63
2023-01-18T22:05:00.454Z,96005.81
2023-01-18T22:07:28.110Z,96003.09
2023-01-18T22:10:05.100Z,96011.44
2023-01-18T22:12:36.522Z,96004.09
2023-01-18T22:15:09.512Z,96007.94
2023-01-18T22:17:36.031Z,96005.25
2023-01-18T22:20:02.495Z,96010.59
2023-01-18T22:22:29.025Z,96006.50
2023-01-18T22:24:57.506Z,96009.97
2023-01-18T22:27:24.071Z,96028.28
2023-01-18T22:29:53.047Z,96031.22
2023-01-18T22:32:19.547Z,96045.00
2023-01-18T22:34:46.045Z,96055.38
2023-01-18T22:37:13.029Z,96059.78
2023-01-18T22:39:39.548Z,96063.03
2023-01-18T22:42:06.243Z,96067.00
2023-01-18T22:44:32.951Z,96059.19
2023-01-18T22:46:59.478Z,96060.13
2023-01-18T22:49:26.102Z,96054.25
2023-01-18T22:51:52.602Z,96059.78
2023-01-18T22:54:22.532Z,96067.66
2023-01-18T22:56:49.398Z,96077.81
2023-01-18T22:59:16.002Z,96079.66
2023-01-18T23:01:42.507Z,96083.88
2023-01-18T23:04:09.771Z,96079.63
2023-01-18T23:06:42.662Z,96089.28
2023-01-18T23:09:10.414Z,96089.31
2023-01-18T23:11:37.476Z,96084.66
2023-01-18T23:14:23.153Z,96093.28
2023-01-18T23:17:08.039Z,96098.41
2023-01-18T23:19:34.675Z,96093.84
2023-01-18T23:22:06.856Z,96089.41
2023-01-18T23:24:37.751Z,96091.44
2023-01-18T23:27:07.020Z,96094.16
2023-01-18T23:29:33.962Z,96094.72
2023-01-18T23:32:00.726Z,96105.31
2023-01-18T23:34:27.195Z,96105.69
2023-01-18T23:36:54.007Z,96109.91
2023-01-18T23:39:39.208Z,96113.84
2023-01-18T23:42:24.579Z,96118.94
2023-01-18T23:45:09.534Z,96125.63
2023-01-18T23:47:54.950Z,96122.84
2023-01-18T23:50:40.189Z,96123.22
2023-01-18T23:53:30.362Z,96128.38
2023-01-18T23:55:56.819Z,96126.94
2023-01-18T23:58:28.146Z,96128.94
